Time;durP1;ratioP1;P1;durP2;ratioP2;P2;SDS_P1;SDS_P2;PMS_P1;PMS_P2;Temp;Humidity;BMP_temperature;BMP_pressure;BME280_temperature;BME280_humidity;BME280_pressure;Samples;Min_cycle;Max_cycle;Signal;HPM_P1;HPM_P2
2023/06/03 00:01:17;;;;;;;;;;;;;;;13.21;63.96;102041.03;5054176;28;20295;-76
2023/06/03 00:03:44;;;;;;;;;;;;;;;13.19;63.56;102038.38;5054293;28;19925;-76
2023/06/03 00:06:10;;;;;;;;;;;;;;;13.15;63.95;102039.31;5054337;28;19943;-76
2023/06/03 00:08:35;;;;;;;;;;;;;;;13.12;64.20;102034.91;5053960;28;20295;-77
2023/06/03 00:11:00;;;;;;;;;;;;;;;13.10;64.16;102034.06;5054301;28;20463;-76
2023/06/03 00:13:26;;;;;;;;;;;;;;;13.09;64.95;102037.63;5068309;28;21558;-76
2023/06/03 00:15:51;;;;;;;;;;;;;;;13.08;65.01;102035.88;5044748;28;19916;-76
2023/06/03 00:18:16;;;;;;;;;;;;;;;13.06;63.71;102037.66;5053811;28;20351;-76
2023/06/03 00:20:47;;;;;;;;;;;;;;;13.03;64.75;102035.06;5054266;28;19951;-76
2023/06/03 00:23:12;;;;;;;;;;;;;;;13.00;64.08;102029.75;5054330;28;19992;-76
2023/06/03 00:25:38;;;;;;;;;;;;;;;12.98;64.35;102038.66;5054036;28;20081;-76
2023/06/03 00:28:03;;;;;;;;;;;;;;;12.95;64.77;102033.38;5053904;28;20008;-76
2023/06/03 00:30:31;;;;;;;;;;;;;;;12.92;65.21;102036.94;5053907;28;19917;-77
2023/06/03 00:32:57;;;;;;;;;;;;;;;12.94;65.07;102034.28;5060382;28;19921;-76
2023/06/03 00:35:23;;;;;;;;;;;;;;;12.90;65.33;102031.63;5069242;28;20260;-77
2023/06/03 00:37:48;;;;;;;;;;;;;;;12.90;64.29;102038.75;5069016;28;19989;-76
2023/06/03 00:40:13;;;;;;;;;;;;;;;12.88;65.27;102035.22;5069189;28;19921;-76
2023/06/03 00:42:39;;;;;;;;;;;;;;;12.86;65.49;102037.91;5053523;28;19932;-76
2023/06/03 00:45:04;;;;;;;;;;;;;;;12.85;66.91;102041.44;5053807;28;20019;-77
2023/06/03 00:47:30;;;;;;;;;;;;;;;12.84;64.84;102037.06;5035408;28;19924;-77
2023/06/03 00:49:56;;;;;;;;;;;;;;;12.79;65.34;102036.22;5053381;28;19929;-77
2023/06/03 00:52:22;;;;;;;;;;;;;;;12.76;65.91;102030.06;5053511;28;19928;-77
2023/06/03 00:54:49;;;;;;;;;;;;;;;12.73;64.73;102027.44;5053420;28;19993;-77
2023/06/03 00:57:15;;;;;;;;;;;;;;;12.69;66.77;102029.25;5053606;28;19947;-77
2023/06/03 00:59:40;;;;;;;;;;;;;;;12.65;67.28;102031.06;5051859;28;19971;-77
2023/06/03 01:02:06;;;;;;;;;;;;;;;12.64;66.55;102031.97;5053109;28;20031;-76
2023/06/03 01:04:31;;;;;;;;;;;;;;;12.60;67.63;102030.22;5053094;28;19970;-77
2023/06/03 01:07:00;;;;;;;;;;;;;;;12.57;65.70;102024.97;5035091;28;19920;-76
2023/06/03 01:09:48;;;;;;;;;;;;;;;12.53;66.73;102025.88;5051496;28;19932;-76
2023/06/03 01:12:16;;;;;;;;;;;;;;;12.49;66.36;102032.16;5052893;28;20249;-76
2023/06/03 01:14:41;;;;;;;;;;;;;;;12.46;67.42;102037.47;5043418;28;20361;-77
2023/06/03 01:17:09;;;;;;;;;;;;;;;12.45;66.66;102030.41;5051061;28;19935;-76
2023/06/03 01:19:38;;;;;;;;;;;;;;;12.45;65.32;102025.09;5034769;28;19931;-77
2023/06/03 01:22:06;;;;;;;;;;;;;;;12.43;66.82;102029.53;5053143;28;19967;-76
2023/06/03 01:24:34;;;;;;;;;;;;;;;12.39;67.35;102034.03;5051312;28;20264;-76
2023/06/03 01:27:00;;;;;;;;;;;;;;;12.35;66.76;102028.75;5051500;28;19942;-76
2023/06/03 01:29:26;;;;;;;;;;;;;;;12.34;66.83;102030.53;5052391;28;20016;-77
2023/06/03 01:31:53;;;;;;;;;;;;;;;12.33;66.99;102034.06;5052539;28;20073;-76
2023/06/03 01:34:19;;;;;;;;;;;;;;;12.31;67.15;102035.84;5052631;28;19962;-77
2023/06/03 01:36:45;;;;;;;;;;;;;;;12.30;67.12;102036.75;5051426;28;20134;-77
2023/06/03 01:39:11;;;;;;;;;;;;;;;12.27;66.19;102031.50;5057027;28;20236;-76
2023/06/03 01:41:37;;;;;;;;;;;;;;;12.24;68.05;102039.50;5052469;28;19921;-77
2023/06/03 01:44:03;;;;;;;;;;;;;;;12.20;67.83;102035.09;5034582;28;19921;-77
2023/06/03 01:46:29;;;;;;;;;;;;;;;12.18;68.44;102044.84;5034491;28;19944;-77
2023/06/03 01:48:56;;;;;;;;;;;;;;;12.13;69.54;102033.38;5044226;28;19933;-77
2023/06/03 01:51:24;;;;;;;;;;;;;;;12.12;70.10;102036.94;5050576;28;20372;-77
2023/06/03 01:53:50;;;;;;;;;;;;;;;12.11;69.09;102033.38;5067529;28;20281;-77
2023/06/03 01:56:15;;;;;;;;;;;;;;;12.10;67.76;102039.59;5056524;28;19939;-77
2023/06/03 01:58:41;;;;;;;;;;;;;;;12.05;67.88;102037.00;5064546;28;20016;-77
2023/06/03 02:01:06;;;;;;;;;;;;;;;12.02;69.98;102038.81;5050925;28;19927;-77
2023/06/03 02:03:32;;;;;;;;;;;;;;;11.99;67.31;102046.78;5050727;28;19916;-77
2023/06/03 02:05:57;;;;;;;;;;;;;;;11.98;69.83;102037.94;5051082;28;19920;-77
2023/06/03 02:08:23;;;;;;;;;;;;;;;11.96;68.54;102033.53;5050330;28;19917;-77
2023/06/03 02:10:48;;;;;;;;;;;;;;;11.94;69.58;102038.88;5034014;28;19917;-77
2023/06/03 02:13:13;;;;;;;;;;;;;;;11.93;69.28;102034.44;5050361;28;19920;-77
2023/06/03 02:15:41;;;;;;;;;;;;;;;11.91;69.26;102030.03;5051264;28;19928;-77
2023/06/03 02:18:06;;;;;;;;;;;;;;;11.89;67.18;102026.50;5051771;28;20030;-77
2023/06/03 02:20:32;;;;;;;;;;;;;;;11.88;69.75;102030.94;5042533;28;20034;-77
2023/06/03 02:23:01;;;;;;;;;;;;;;;11.87;69.57;102028.28;5067151;28;19928;-77
2023/06/03 02:25:27;;;;;;;;;;;;;;;11.85;69.61;102028.28;5050375;28;20312;-77
2023/06/03 02:27:54;;;;;;;;;;;;;;;11.84;68.34;102034.47;5051881;28;20018;-77
2023/06/03 02:30:20;;;;;;;;;;;;;;;11.82;71.31;102026.53;5067018;28;19954;-77
2023/06/03 02:32:45;;;;;;;;;;;;;;;11.83;69.97;102033.59;5051203;28;19931;-77
2023/06/03 02:35:11;;;;;;;;;;;;;;;11.81;68.50;102027.41;5067234;28;19923;-77
2023/06/03 02:37:36;;;;;;;;;;;;;;;11.81;70.19;102035.38;5052897;28;20007;-77
2023/06/03 02:40:02;;;;;;;;;;;;;;;11.82;68.89;102030.97;5060838;28;20364;-77
2023/06/03 02:42:29;;;;;;;;;;;;;;;11.81;69.38;102030.06;5049745;28;20355;-73
2023/06/03 02:44:55;;;;;;;;;;;;;;;11.80;68.46;102025.66;5051813;28;20019;-72
2023/06/03 02:47:20;;;;;;;;;;;;;;;11.80;67.75;102023.00;5049861;28;19927;-72
2023/06/03 02:49:45;;;;;;;;;;;;;;;11.79;68.66;102023.91;5051329;28;19925;-72
2023/06/03 02:52:13;;;;;;;;;;;;;;;11.78;68.98;102026.56;5042305;28;20207;-72
2023/06/03 02:54:38;;;;;;;;;;;;;;;11.78;68.77;102023.91;5042565;28;19921;-72
2023/06/03 02:57:03;;;;;;;;;;;;;;;11.76;67.92;102031.88;5045249;28;19921;-72
2023/06/03 02:59:29;;;;;;;;;;;;;;;11.74;68.86;102030.13;5041823;28;19921;-72
2023/06/03 03:01:54;;;;;;;;;;;;;;;11.73;68.07;102037.22;5051206;28;20321;-72
2023/06/03 03:04:20;;;;;;;;;;;;;;;11.72;67.96;102040.78;5041061;28;20295;-72
2023/06/03 03:06:49;;;;;;;;;;;;;;;11.68;66.88;102039.03;5044524;28;19920;-72
2023/06/03 03:09:14;;;;;;;;;;;;;;;11.68;67.54;102035.50;5049353;28;19925;-72
2023/06/03 03:11:43;;;;;;;;;;;;;;;11.67;68.42;102033.72;5033682;28;20375;-71
2023/06/03 03:14:11;;;;;;;;;;;;;;;11.63;68.43;102031.09;5047589;28;19921;-73
2023/06/03 03:16:38;;;;;;;;;;;;;;;11.61;68.43;102034.66;5028955;28;20347;-73
2023/06/03 03:19:04;;;;;;;;;;;;;;;11.58;66.05;102038.22;5048871;28;19921;-73
2023/06/03 03:21:29;;;;;;;;;;;;;;;11.57;67.88;102043.50;5039633;28;20264;-72
2023/06/03 03:23:58;;;;;;;;;;;;;;;11.54;67.57;102030.28;5049393;28;19920;-73
2023/06/03 03:26:25;;;;;;;;;;;;;;;11.51;68.03;102043.56;5051148;28;19921;-73
2023/06/03 03:28:52;;;;;;;;;;;;;;;11.49;68.27;102040.03;5053383;28;19987;-73
2023/06/03 03:31:20;;;;;;;;;;;;;;;11.47;66.36;102042.69;5036214;28;19923;-73
2023/06/03 03:33:48;;;;;;;;;;;;;;;11.47;68.42;102047.13;5047192;28;20320;-73
2023/06/03 03:36:23;;;;;;;;;;;;;;;11.44;68.82;102044.50;5039821;28;20016;-73
2023/06/03 03:38:59;;;;;;;;;;;;;;;11.43;69.27;102042.75;5054633;28;19924;-73
2023/06/03 03:41:25;;;;;;;;;;;;;;;11.42;69.07;102044.50;5040158;28;19982;-73
2023/06/03 03:43:51;;;;;;;;;;;;;;;11.40;69.11;102052.47;5053415;28;20322;-73
2023/06/03 03:46:17;;;;;;;;;;;;;;;11.37;68.45;102047.22;5053120;28;20276;-73
2023/06/03 03:48:42;;;;;;;;;;;;;;;11.37;68.78;102056.91;5069807;28;19986;-73
2023/06/03 03:51:08;;;;;;;;;;;;;;;11.36;68.51;102058.69;5053808;28;20396;-73
2023/06/03 03:53:35;;;;;;;;;;;;;;;11.34;70.17;102054.28;5033150;28;19928;-73
2023/06/03 03:56:04;;;;;;;;;;;;;;;11.33;68.73;102055.19;5048379;28;19928;-73
2023/06/03 03:58:43;;;;;;;;;;;;;;;11.31;69.28;102054.31;5052974;28;19921;-73
2023/06/03 04:01:21;;;;;;;;;;;;;;;11.31;69.33;102056.97;5036971;28;19920;-73
2023/06/03 04:03:48;;;;;;;;;;;;;;;11.31;69.75;102049.88;5053062;28;20038;-72
2023/06/03 04:06:23;;;;;;;;;;;;;;;11.31;69.22;102057.81;5052825;28;19924;-73
2023/06/03 04:08:51;;;;;;;;;;;;;;;11.30;69.84;102056.09;5069241;28;19924;-73
2023/06/03 04:11:20;;;;;;;;;;;;;;;11.32;69.82;102053.41;5054372;28;20303;-73
2023/06/03 04:13:46;;;;;;;;;;;;;;;11.32;68.95;102054.28;5050531;28;20398;-72
2023/06/03 04:16:18;;;;;;;;;;;;;;;11.32;70.06;102056.94;5045747;28;20007;-72
2023/06/03 04:18:43;;;;;;;;;;;;;;;11.32;69.79;102053.41;5038454;28;19917;-72
2023/06/03 04:21:16;;;;;;;;;;;;;;;11.33;69.70;102055.19;5063751;28;19921;-72
2023/06/03 04:23:42;;;;;;;;;;;;;;;11.33;69.20;102053.41;5052347;28;19924;-72
2023/06/03 04:26:09;;;;;;;;;;;;;;;11.34;69.98;102060.47;5053932;28;19921;-72
2023/06/03 04:28:37;;;;;;;;;;;;;;;11.36;69.96;102060.47;5052184;28;20015;-72
2023/06/03 04:31:03;;;;;;;;;;;;;;;11.39;69.09;102057.78;5052438;28;19970;-72
2023/06/03 04:33:28;;;;;;;;;;;;;;;11.40;68.39;102064.88;5049023;28;19975;-71
2023/06/03 04:35:54;;;;;;;;;;;;;;;11.40;66.79;102057.78;5052236;28;20349;-72
2023/06/03 04:38:19;;;;;;;;;;;;;;;11.43;68.28;102064.84;5053267;28;19921;-72
2023/06/03 04:40:46;;;;;;;;;;;;;;;11.44;70.08;102063.94;5052119;28;20393;-72
2023/06/03 04:43:14;;;;;;;;;;;;;;;11.47;69.60;102068.34;5035626;28;20011;-72
2023/06/03 04:45:40;;;;;;;;;;;;;;;11.50;69.51;102070.97;5035500;28;20363;-73
2023/06/03 04:48:06;;;;;;;;;;;;;;;11.54;68.18;102070.94;5068409;28;19925;-72
2023/06/03 04:50:35;;;;;;;;;;;;;;;11.56;69.22;102066.53;5066362;28;20378;-73
2023/06/03 04:53:01;;;;;;;;;;;;;;;11.58;68.76;102067.41;5051590;28;19917;-72
2023/06/03 04:55:27;;;;;;;;;;;;;;;11.63;67.29;102067.38;5052292;28;20353;-72
2023/06/03 04:57:54;;;;;;;;;;;;;;;11.64;67.91;102063.81;5053497;28;19924;-72
2023/06/03 05:00:21;;;;;;;;;;;;;;;11.72;67.94;102071.72;5068853;28;19927;-72
2023/06/03 05:02:56;;;;;;;;;;;;;;;11.79;66.37;102071.69;5068357;28;19979;-73
2023/06/03 05:05:24;;;;;;;;;;;;;;;11.88;67.83;102064.56;5051997;28;19995;-72
2023/06/03 05:07:51;;;;;;;;;;;;;;;11.95;66.43;102071.59;5051698;28;19970;-72
2023/06/03 05:10:17;;;;;;;;;;;;;;;12.01;66.60;102064.44;5051653;28;19924;-72
2023/06/03 05:12:42;;;;;;;;;;;;;;;12.08;65.65;102067.94;5052086;28;19966;-72
2023/06/03 05:15:09;;;;;;;;;;;;;;;12.14;67.13;102070.56;5042476;28;19917;-72
2023/06/03 05:17:34;;;;;;;;;;;;;;;12.19;66.17;102060.78;5051741;28;19923;-72
2023/06/03 05:20:00;;;;;;;;;;;;;;;12.27;66.30;102060.69;5051568;28;19927;-72
2023/06/03 05:22:26;;;;;;;;;;;;;;;12.35;65.43;102060.63;5068284;28;19924;-72
2023/06/03 05:24:51;;;;;;;;;;;;;;;12.42;64.67;102063.19;5057050;28;19974;-72
2023/06/03 05:27:17;;;;;;;;;;;;;;;12.52;66.65;102068.44;5051742;28;20388;-72
2023/06/03 05:29:45;;;;;;;;;;;;;;;12.59;65.35;102064.81;5051338;28;20384;-72
2023/06/03 05:32:11;;;;;;;;;;;;;;;12.67;63.81;102069.13;5051260;28;19917;-72
2023/06/03 05:34:36;;;;;;;;;;;;;;;12.73;64.38;102065.53;5052846;28;20390;-72
2023/06/03 05:37:03;;;;;;;;;;;;;;;12.80;63.05;102066.34;5051356;28;19972;-73
2023/06/03 05:39:28;;;;;;;;;;;;;;;12.86;64.73;102061.84;5034619;28;20324;-73
2023/06/03 05:41:54;;;;;;;;;;;;;;;12.93;63.38;102069.72;5051171;28;19959;-73
2023/06/03 05:44:19;;;;;;;;;;;;;;;13.01;64.21;102066.09;5067891;28;19925;-73
2023/06/03 05:46:45;;;;;;;;;;;;;;;13.08;62.84;102065.13;5052667;28;19931;-72
2023/06/03 05:49:11;;;;;;;;;;;;;;;13.18;62.69;102062.31;5050288;28;19921;-73
2023/06/03 05:51:36;;;;;;;;;;;;;;;13.26;62.03;102071.97;5050663;28;19925;-73
2023/06/03 05:54:02;;;;;;;;;;;;;;;13.32;62.89;102063.94;5052364;28;19920;-73
2023/06/03 05:56:27;;;;;;;;;;;;;;;13.41;62.29;102064.72;5067470;28;19921;-73
2023/06/03 05:58:53;;;;;;;;;;;;;;;13.47;62.17;102070.81;5052335;28;19917;-72
2023/06/03 06:01:19;;;;;;;;;;;;;;;13.55;61.15;102063.63;5052268;28;19996;-73
2023/06/03 06:03:44;;;;;;;;;;;;;;;13.62;61.10;102064.38;5050700;28;19929;-73
2023/06/03 06:06:12;;;;;;;;;;;;;;;13.72;60.39;102067.78;5056061;28;19927;-72
2023/06/03 06:08:37;;;;;;;;;;;;;;;13.81;60.31;102053.47;5051930;28;20282;-73
2023/06/03 06:11:02;;;;;;;;;;;;;;;13.90;60.09;102059.53;5050846;28;20012;-73
2023/06/03 06:13:28;;;;;;;;;;;;;;;14.00;60.22;102065.59;5049011;28;19936;-73
2023/06/03 06:15:57;;;;;;;;;;;;;;;14.08;60.12;102069.00;5025734;28;19921;-73
2023/06/03 06:18:23;;;;;;;;;;;;;;;14.19;59.49;102063.47;5050590;28;19960;-73
2023/06/03 06:20:49;;;;;;;;;;;;;;;14.26;59.28;102073.13;5050604;28;19992;-73
2023/06/03 06:23:15;;;;;;;;;;;;;;;14.34;59.51;102076.53;5050569;28;19955;-72
2023/06/03 06:25:47;;;;;;;;;;;;;;;14.45;59.09;102076.34;5050707;28;19933;-73
2023/06/03 06:28:12;;;;;;;;;;;;;;;14.55;58.82;102072.63;5050605;28;20086;-73
2023/06/03 06:30:38;;;;;;;;;;;;;;;14.66;58.33;102076.88;5034098;28;20337;-73
2023/06/03 06:33:03;;;;;;;;;;;;;;;14.72;56.93;102079.44;5030058;28;19921;-73
2023/06/03 06:35:35;;;;;;;;;;;;;;;14.77;57.02;102074.91;5050488;28;19924;-72
2023/06/03 06:38:02;;;;;;;;;;;;;;;14.84;56.38;102073.88;5050213;28;19921;-73
2023/06/03 06:40:30;;;;;;;;;;;;;;;14.95;56.59;102076.31;5050467;28;20007;-73
2023/06/03 06:42:56;;;;;;;;;;;;;;;15.05;56.63;102075.19;5051401;28;19955;-72
2023/06/03 06:45:42;;;;;;;;;;;;;;;15.19;56.22;102083.81;5054577;28;19920;-72
2023/06/03 06:48:08;;;;;;;;;;;;;;;15.29;55.96;102080.94;5050044;28;19921;-73
2023/06/03 06:50:45;;;;;;;;;;;;;;;15.40;55.84;102078.91;5063959;28;20307;-73
2023/06/03 06:53:11;;;;;;;;;;;;;;;15.52;55.54;102081.28;5051369;28;19924;-72
2023/06/03 06:55:47;;;;;;;;;;;;;;;15.63;54.46;102081.06;5051555;28;19921;-72
2023/06/03 06:58:15;;;;;;;;;;;;;;;15.73;54.76;102085.31;5049687;28;20287;-72
2023/06/03 07:00:41;;;;;;;;;;;;;;;15.81;53.46;102080.66;5049687;28;20288;-73
2023/06/03 07:03:08;;;;;;;;;;;;;;;15.91;53.50;102081.31;5049867;28;19947;-73
2023/06/03 07:05:33;;;;;;;;;;;;;;;16.02;53.45;102089.97;5051105;28;19917;-73
2023/06/03 07:07:59;;;;;;;;;;;;;;;16.13;52.34;102084.34;5054188;28;20445;-73
2023/06/03 07:10:24;;;;;;;;;;;;;;;16.24;52.84;102078.69;5046388;28;19921;-73
2023/06/03 07:12:51;;;;;;;;;;;;;;;16.33;51.52;102081.16;5049533;28;20271;-73
2023/06/03 07:15:17;;;;;;;;;;;;;;;16.39;51.58;102072.06;5047904;28;19917;-73
2023/06/03 07:17:47;;;;;;;;;;;;;;;16.48;51.08;102074.50;5049510;28;20089;-77
2023/06/03 07:20:26;;;;;;;;;;;;;;;16.60;50.89;102073.31;5039439;28;20012;-76
2023/06/03 07:22:51;;;;;;;;;;;;;;;16.71;50.56;102076.56;5043225;28;19963;-76
2023/06/03 07:25:37;;;;;;;;;;;;;;;16.83;51.67;102070.03;5051057;28;19928;-73
2023/06/03 07:28:29;;;;;;;;;;;;;;;16.96;50.08;102069.63;5050574;28;20308;-73
2023/06/03 07:30:57;;;;;;;;;;;;;;;17.09;49.38;102071.97;5048461;28;19936;-74
2023/06/03 07:33:28;;;;;;;;;;;;;;;17.20;49.41;102081.41;5041437;28;19917;-73
2023/06/03 07:35:55;;;;;;;;;;;;;;;17.29;48.33;102082.94;5032978;28;19916;-74
2023/06/03 07:38:36;;;;;;;;;;;;;;;17.39;47.81;102080.84;5059801;28;20527;-73
2023/06/03 07:41:01;;;;;;;;;;;;;;;17.51;47.52;102075.13;5032627;28;20027;-73
2023/06/03 07:43:27;;;;;;;;;;;;;;;17.63;48.66;102079.22;5066099;28;20011;-73
2023/06/03 07:45:53;;;;;;;;;;;;;;;17.70;46.55;102075.41;5066114;28;19917;-73
2023/06/03 07:48:19;;;;;;;;;;;;;;;17.84;45.66;102075.00;5050791;28;20336;-73
2023/06/03 07:50:45;;;;;;;;;;;;;;;17.94;47.42;102076.44;5050478;28;19929;-73
2023/06/03 07:53:12;;;;;;;;;;;;;;;18.09;45.01;102068.84;5049275;28;20019;-72
2023/06/03 07:55:44;;;;;;;;;;;;;;;18.21;46.98;102071.97;5051028;28;20283;-73
2023/06/03 07:58:10;;;;;;;;;;;;;;;18.33;45.16;102073.34;5050493;28;19971;-73
2023/06/03 08:00:36;;;;;;;;;;;;;;;18.47;45.13;102088.94;5050878;28;20339;-73
2023/06/03 08:03:02;;;;;;;;;;;;;;;18.60;44.51;102090.28;5050422;28;19917;-73
2023/06/03 08:05:33;;;;;;;;;;;;;;;18.75;44.52;102085.31;5049539;28;20070;-73
2023/06/03 08:07:58;;;;;;;;;;;;;;;18.85;43.63;102082.25;5050633;28;20276;-74
2023/06/03 08:10:24;;;;;;;;;;;;;;;18.91;43.22;102081.13;5050651;28;19932;-73
2023/06/03 08:12:50;;;;;;;;;;;;;;;18.99;45.01;102087.13;5067918;28;20239;-74
2023/06/03 08:15:27;;;;;;;;;;;;;;;19.07;42.71;102078.78;5044497;28;19916;-73
2023/06/03 08:17:53;;;;;;;;;;;;;;;19.20;41.43;102081.88;5054116;28;20002;-76
2023/06/03 08:20:27;;;;;;;;;;;;;;;19.26;40.52;102082.50;5053996;28;20376;-77
2023/06/03 08:22:53;;;;;;;;;;;;;;;19.33;40.10;102072.38;5053557;28;20002;-77
2023/06/03 08:25:18;;;;;;;;;;;;;;;19.44;39.05;102074.69;5054202;28;19958;-76
2023/06/03 08:27:44;;;;;;;;;;;;;;;19.52;39.02;102088.66;5053784;28;19952;-76
2023/06/03 08:30:12;;;;;;;;;;;;;;;19.58;41.08;102079.47;5054108;28;20283;-76
2023/06/03 08:32:39;;;;;;;;;;;;;;;19.64;37.30;102082.81;5052216;28;19932;-76
2023/06/03 08:35:05;;;;;;;;;;;;;;;19.65;36.90;102081.84;5043500;28;20026;-76
2023/06/03 08:37:32;;;;;;;;;;;;;;;19.69;36.29;102082.66;5034791;28;20185;-76
2023/06/03 08:39:57;;;;;;;;;;;;;;;19.75;36.80;102085.09;5053907;28;19960;-76
2023/06/03 08:42:27;;;;;;;;;;;;;;;19.80;37.03;102074.16;5053319;28;20355;-76
2023/06/03 08:44:52;;;;;;;;;;;;;;;19.86;36.44;102084.66;5053751;28;19916;-75
2023/06/03 08:47:25;;;;;;;;;;;;;;;19.89;36.53;102074.66;5051890;28;19920;-76
2023/06/03 08:49:59;;;;;;;;;;;;;;;19.98;37.69;102082.34;5039499;28;19935;-75
2023/06/03 08:52:30;;;;;;;;;;;;;;;20.10;35.47;102066.63;5047013;28;19967;-75
2023/06/03 08:54:59;;;;;;;;;;;;;;;20.19;38.64;102077.00;5053566;28;20062;-78
2023/06/03 08:57:26;;;;;;;;;;;;;;;20.27;36.80;102063.22;5052202;28;19928;-78
2023/06/03 08:59:53;;;;;;;;;;;;;;;20.43;35.71;102061.63;5053406;28;19978;-78
2023/06/03 09:02:19;;;;;;;;;;;;;;;20.56;35.16;102070.91;5053504;28;19982;-78
2023/06/03 09:04:45;;;;;;;;;;;;;;;20.58;33.74;102073.56;5053001;28;19929;-78
2023/06/03 09:07:11;;;;;;;;;;;;;;;20.62;34.79;102077.84;5052078;28;19924;-77
2023/06/03 09:09:37;;;;;;;;;;;;;;;20.69;37.00;102079.31;5068368;28;19928;-77
2023/06/03 09:12:03;;;;;;;;;;;;;;;20.71;35.88;102079.25;5053295;28;19925;-78
2023/06/03 09:14:29;;;;;;;;;;;;;;;20.71;36.41;102071.19;5043884;28;19924;-78
2023/06/03 09:16:55;;;;;;;;;;;;;;;20.76;35.17;102059.25;5049371;28;19920;-78
2023/06/03 09:19:20;;;;;;;;;;;;;;;20.83;35.38;102070.63;5052377;28;19917;-78
2023/06/03 09:21:47;;;;;;;;;;;;;;;20.88;35.15;102075.81;5040766;28;19921;-80
2023/06/03 09:24:13;;;;;;;;;;;;;;;21.00;35.25;102073.44;5056396;28;19923;-76
2023/06/03 09:26:39;;;;;;;;;;;;;;;21.17;36.30;102066.38;5053089;28;20220;-77
2023/06/03 09:29:06;;;;;;;;;;;;;;;21.40;35.39;102070.72;5066035;28;19920;-78
2023/06/03 09:31:32;;;;;;;;;;;;;;;21.50;32.58;102065.75;5059384;28;19925;-76
2023/06/03 09:33:57;;;;;;;;;;;;;;;21.57;34.16;102070.78;5053060;28;19916;-77
2023/06/03 09:36:25;;;;;;;;;;;;;;;21.64;31.82;102072.22;5052932;28;19931;-76
2023/06/03 09:38:54;;;;;;;;;;;;;;;21.67;32.56;102068.50;5053064;28;20003;-76
2023/06/03 09:41:27;;;;;;;;;;;;;;;21.79;32.04;102067.91;5051147;28;19917;-76
2023/06/03 09:43:57;;;;;;;;;;;;;;;21.88;32.68;102067.44;5044572;28;20016;-76
2023/06/03 09:46:23;;;;;;;;;;;;;;;21.94;33.29;102068.97;5061568;28;19921;-76
2023/06/03 09:48:48;;;;;;;;;;;;;;;21.96;30.80;102075.16;5052981;28;19913;-76
2023/06/03 09:51:14;;;;;;;;;;;;;;;22.00;31.44;102070.47;5052664;28;19932;-76
2023/06/03 09:53:39;;;;;;;;;;;;;;;22.13;30.75;102063.47;5052364;28;20375;-76
2023/06/03 09:56:23;;;;;;;;;;;;;;;22.22;31.70;102063.06;5050440;28;20327;-76
2023/06/03 09:58:51;;;;;;;;;;;;;;;22.32;30.00;102066.16;5042689;28;19916;-76
2023/06/03 10:01:27;;;;;;;;;;;;;;;22.42;31.96;102063.84;5051251;28;20004;-76
2023/06/03 10:03:59;;;;;;;;;;;;;;;22.49;26.61;102068.84;5052449;28;20397;-77
2023/06/03 10:06:24;;;;;;;;;;;;;;;22.49;27.84;102067.97;5053992;28;20003;-76
2023/06/03 10:08:50;;;;;;;;;;;;;;;22.50;27.67;102061.59;5050175;28;20011;-76
2023/06/03 10:11:15;;;;;;;;;;;;;;;22.58;29.02;102066.63;5052286;28;20009;-76
2023/06/03 10:13:41;;;;;;;;;;;;;;;22.62;27.23;102063.66;5050987;28;19921;-76
2023/06/03 10:16:10;;;;;;;;;;;;;;;22.74;27.95;102064.84;5052384;28;22082;-76
2023/06/03 10:18:37;;;;;;;;;;;;;;;22.85;29.02;102064.25;5058882;28;19917;-76
2023/06/03 10:21:12;;;;;;;;;;;;;;;23.06;25.94;102064.97;5050992;28;19927;-76
2023/06/03 10:23:38;;;;;;;;;;;;;;;23.09;26.57;102071.03;5042968;28;19991;-76
2023/06/03 10:26:04;;;;;;;;;;;;;;;23.09;26.45;102062.06;5052175;28;19977;-76
2023/06/03 10:28:30;;;;;;;;;;;;;;;23.22;27.11;102060.47;5051221;28;19952;-76
2023/06/03 10:30:57;;;;;;;;;;;;;;;23.40;27.23;102069.34;5051229;28;19936;-76
2023/06/03 10:33:23;;;;;;;;;;;;;;;23.44;24.87;102056.53;5050157;28;19921;-77
2023/06/03 10:35:49;;;;;;;;;;;;;;;23.52;25.71;102051.56;5050174;28;20007;-76
2023/06/03 10:38:14;;;;;;;;;;;;;;;23.61;25.50;102057.31;5050584;28;20448;-76
2023/06/03 10:40:41;;;;;;;;;;;;;;;23.71;25.61;102054.06;5052152;28;19929;-76
2023/06/03 10:43:09;;;;;;;;;;;;;;;23.84;25.28;102055.16;5050137;28;19978;-76
2023/06/03 10:45:34;;;;;;;;;;;;;;;23.98;24.14;102052.47;5051672;28;19917;-76
2023/06/03 10:48:02;;;;;;;;;;;;;;;24.09;26.51;102051.84;5050195;28;19921;-76
2023/06/03 10:50:37;;;;;;;;;;;;;;;24.12;22.24;102056.22;5048024;28;20265;-76
2023/06/03 10:53:10;;;;;;;;;;;;;;;24.09;23.80;102051.84;5053523;28;19924;-76
2023/06/03 10:55:42;;;;;;;;;;;;;;;24.12;26.05;102048.97;5052215;28;19927;-77
2023/06/03 10:58:13;;;;;;;;;;;;;;;24.24;26.29;102039.25;5051795;28;19917;-76
2023/06/03 11:00:55;;;;;;;;;;;;;;;24.34;24.33;102037.72;5050342;28;19917;-79
2023/06/03 11:03:22;;;;;;;;;;;;;;;24.44;24.95;102046.13;5051022;28;19913;-77
2023/06/03 11:05:48;;;;;;;;;;;;;;;24.47;22.93;102045.97;5050748;28;20561;-76
2023/06/03 11:08:13;;;;;;;;;;;;;;;24.52;23.24;102053.81;5049762;28;20023;-76
2023/06/03 11:10:40;;;;;;;;;;;;;;;24.64;26.02;102050.34;5050125;28;20469;-76
2023/06/03 11:13:06;;;;;;;;;;;;;;;24.74;24.38;102037.13;5058649;28;20127;-76
2023/06/03 11:15:50;;;;;;;;;;;;;;;24.85;26.75;102038.19;5050202;28;19960;-76
2023/06/03 11:18:16;;;;;;;;;;;;;;;25.02;22.31;102039.78;5050029;28;19924;-77
2023/06/03 11:20:41;;;;;;;;;;;;;;;25.10;25.72;102042.91;5051497;28;19920;-77
2023/06/03 11:23:07;;;;;;;;;;;;;;;25.15;25.16;102037.19;5051199;28;19921;-77
2023/06/03 11:25:32;;;;;;;;;;;;;;;25.18;22.80;102039.72;5049373;28;20001;-77
2023/06/03 11:28:26;;;;;;;;;;;;;;;25.33;23.23;102029.72;5051605;28;19931;-76
2023/06/03 11:30:55;;;;;;;;;;;;;;;25.41;26.18;102038.22;5049474;28;19929;-77
2023/06/03 11:33:21;;;;;;;;;;;;;;;25.44;24.12;102048.88;5054413;28;19917;-76
2023/06/03 11:35:46;;;;;;;;;;;;;;;25.62;24.81;102045.91;5057130;28;20110;-77
2023/06/03 11:38:11;;;;;;;;;;;;;;;25.83;23.41;102041.75;5051339;28;19921;-77
2023/06/03 11:40:46;;;;;;;;;;;;;;;26.03;22.28;102042.28;5055937;28;20010;-77
2023/06/03 11:43:12;;;;;;;;;;;;;;;26.12;22.60;102038.97;5051294;28;19928;-77
2023/06/03 11:45:38;;;;;;;;;;;;;;;26.19;24.60;102034.84;5051275;28;19921;-77
2023/06/03 11:48:08;;;;;;;;;;;;;;;26.28;23.39;102036.03;5053804;28;19989;-77
2023/06/03 11:50:48;;;;;;;;;;;;;;;26.36;25.53;102028.25;5053180;28;19932;-77
2023/06/03 11:53:30;;;;;;;;;;;;;;;26.54;24.65;102032.41;5055052;28;19916;-77
2023/06/03 11:56:08;;;;;;;;;;;;;;;26.70;21.94;102028.59;5054910;28;19977;-77
2023/06/03 11:58:35;;;;;;;;;;;;;;;26.88;21.20;102023.69;5054830;28;20372;-77
2023/06/03 12:01:17;;;;;;;;;;;;;;;26.95;23.67;102033.13;5056591;28;20024;-77
2023/06/03 12:04:02;;;;;;;;;;;;;;;26.97;24.43;102031.16;5054600;28;19917;-77
2023/06/03 12:06:34;;;;;;;;;;;;;;;27.06;22.58;102029.66;5054561;28;19952;-77
2023/06/03 12:08:59;;;;;;;;;;;;;;;27.06;20.31;102030.50;5056989;28;19963;-77
2023/06/03 12:11:28;;;;;;;;;;;;;;;27.12;23.72;102024.59;5068833;28;20340;-78
2023/06/03 12:13:54;;;;;;;;;;;;;;;27.18;22.00;102026.03;5052868;28;19920;-78
2023/06/03 12:16:26;;;;;;;;;;;;;;;27.44;20.84;102013.22;5058786;28;19990;-78
2023/06/03 12:18:52;;;;;;;;;;;;;;;27.50;22.60;102023.66;5048928;28;19917;-78
2023/06/03 12:21:21;;;;;;;;;;;;;;;27.42;23.25;102016.09;5053799;28;19974;-77
2023/06/03 12:23:47;;;;;;;;;;;;;;;27.53;23.91;102020.72;5054872;28;19982;-77
2023/06/03 12:26:12;;;;;;;;;;;;;;;27.60;23.00;102027.44;5053944;28;19953;-77
2023/06/03 12:28:38;;;;;;;;;;;;;;;27.71;22.25;102031.19;5060534;28;19924;-78
2023/06/03 12:31:16;;;;;;;;;;;;;;;27.87;21.88;102027.22;5054049;28;19925;-78
2023/06/03 12:33:42;;;;;;;;;;;;;;;27.97;21.05;102021.94;5053983;28;19985;-77
2023/06/03 12:36:08;;;;;;;;;;;;;;;28.05;22.94;102018.63;5054058;28;19973;-78
2023/06/03 12:38:34;;;;;;;;;;;;;;;28.30;24.21;102017.56;5053902;28;20324;-78